KAL119 RKSS-RKPC
Flight info
| Callsign | KAL119 |
|---|---|
| Flight time | 1h 10m |
| Altitude | 25000 |
| Route | BULTI Y711 DOTOL |
| Aircraft | B739/M-SDE3/L |
Departure
| Time | 2026-05-04 14:23 |
|---|---|
| Airport | Gimpo International Airport (RKSS) |
Arrival
| Time | 2026-05-04 15:33 |
|---|---|
| Airport | Jeju International Airport (RKPC) |
| Time | Latitude | Longitude | Altitude | Speed | Heading |
|---|---|---|---|---|---|
| 2026-05-04 13:44 | 37.55718 | 126.80379 | 64 ft | 0 kts | 45° |
| 2026-05-04 14:10 | 37.55714 | 126.80374 | 64 ft | 2 kts | 45° |
| 2026-05-04 14:11 | 37.55703 | 126.80360 | 64 ft | 2 kts | 45° |
| 2026-05-04 14:11 | 37.55682 | 126.80333 | 64 ft | 2 kts | 49° |
| 2026-05-04 14:11 | 37.55674 | 126.80317 | 64 ft | 2 kts | 66° |
| 2026-05-04 14:12 | 37.55669 | 126.80299 | 65 ft | 2 kts | 79° |
| 2026-05-04 14:12 | 37.55668 | 126.80280 | 65 ft | 2 kts | 92° |
| 2026-05-04 14:12 | 37.55675 | 126.80244 | 66 ft | 2 kts | 118° |
| 2026-05-04 14:13 | 37.55683 | 126.80228 | 66 ft | 1 kts | 131° |
| 2026-05-04 14:13 | 37.55689 | 126.80222 | 66 ft | 1 kts | 137° |
| 2026-05-04 14:13 | 37.55690 | 126.80221 | 66 ft | 0 kts | 136° |
| 2026-05-04 14:17 | 37.55650 | 126.80269 | 65 ft | 7 kts | 136° |
| 2026-05-04 14:17 | 37.55599 | 126.80311 | 63 ft | 9 kts | 172° |
| 2026-05-04 14:17 | 37.55499 | 126.80212 | 61 ft | 10 kts | 226° |
| 2026-05-04 14:18 | 37.55463 | 126.80175 | 61 ft | 6 kts | 194° |
| 2026-05-04 14:18 | 37.55383 | 126.80240 | 59 ft | 8 kts | 136° |
| 2026-05-04 14:19 | 37.55283 | 126.80365 | 57 ft | 11 kts | 135° |
| 2026-05-04 14:19 | 37.55221 | 126.80444 | 55 ft | 13 kts | 135° |
| 2026-05-04 14:19 | 37.55151 | 126.80532 | 54 ft | 14 kts | 135° |
| 2026-05-04 14:19 | 37.55079 | 126.80623 | 54 ft | 14 kts | 135° |
| 2026-05-04 14:20 | 37.55006 | 126.80714 | 54 ft | 14 kts | 134° |
| 2026-05-04 14:20 | 37.54930 | 126.80808 | 54 ft | 14 kts | 148° |
| 2026-05-04 14:20 | 37.54884 | 126.80816 | 54 ft | 0 kts | 203° |
| 2026-05-04 14:21 | 37.54871 | 126.80807 | 54 ft | 0 kts | 227° |
| 2026-05-04 14:21 | 37.54871 | 126.80806 | 54 ft | 0 kts | 227° |
| 2026-05-04 14:21 | 37.54832 | 126.80753 | 54 ft | 20 kts | 226° |
| 2026-05-04 14:21 | 37.54810 | 126.80686 | 54 ft | 6 kts | 280° |
| 2026-05-04 14:22 | 37.54832 | 126.80637 | 54 ft | 6 kts | 314° |
| 2026-05-04 14:22 | 37.54886 | 126.80572 | 54 ft | 25 kts | 316° |
| 2026-05-04 14:22 | 37.55248 | 126.80115 | 59 ft | 115 kts | 315° |
| 2026-05-04 14:22 | 37.55964 | 126.79206 | 210 ft | 174 kts | 314° |
| 2026-05-04 14:23 | 37.58047 | 126.76520 | 2101 ft | 236 kts | 311° |
| 2026-05-04 14:23 | 37.59102 | 126.75074 | 3552 ft | 230 kts | 311° |
| 2026-05-04 14:23 | 37.60207 | 126.73583 | 4643 ft | 242 kts | 312° |
| 2026-05-04 14:24 | 37.61267 | 126.71830 | 5076 ft | 262 kts | 298° |
| 2026-05-04 14:24 | 37.61707 | 126.69625 | 5106 ft | 262 kts | 271° |
| 2026-05-04 14:24 | 37.61408 | 126.67377 | 5103 ft | 259 kts | 255° |
| 2026-05-04 14:24 | 37.60605 | 126.65354 | 5101 ft | 261 kts | 234° |
| 2026-05-04 14:25 | 37.59350 | 126.63631 | 5059 ft | 266 kts | 229° |
| 2026-05-04 14:25 | 37.56760 | 126.60360 | 4993 ft | 265 kts | 221° |
| 2026-05-04 14:25 | 37.55100 | 126.59279 | 5039 ft | 280 kts | 197° |
| 2026-05-04 14:26 | 37.53118 | 126.58958 | 6060 ft | 293 kts | 187° |
| 2026-05-04 14:26 | 37.51117 | 126.58732 | 7510 ft | 289 kts | 184° |
| 2026-05-04 14:26 | 37.49134 | 126.59043 | 8700 ft | 294 kts | 167° |
| 2026-05-04 14:26 | 37.47184 | 126.59743 | 9814 ft | 299 kts | 164° |
| 2026-05-04 14:27 | 37.45157 | 126.60460 | 10759 ft | 310 kts | 166° |
| 2026-05-04 14:27 | 37.43006 | 126.61159 | 11540 ft | 327 kts | 166° |
| 2026-05-04 14:27 | 37.40728 | 126.61867 | 12275 ft | 344 kts | 167° |
| 2026-05-04 14:27 | 37.38375 | 126.62588 | 12969 ft | 361 kts | 167° |
| 2026-05-04 14:28 | 37.35880 | 126.63347 | 13813 ft | 371 kts | 166° |
| 2026-05-04 14:28 | 37.33380 | 126.64106 | 14853 ft | 376 kts | 166° |
| 2026-05-04 14:28 | 37.30824 | 126.64882 | 15802 ft | 382 kts | 166° |
| 2026-05-04 14:28 | 37.28213 | 126.65673 | 16704 ft | 388 kts | 166° |
| 2026-05-04 14:29 | 37.22940 | 126.67269 | 18550 ft | 397 kts | 166° |
| 2026-05-04 14:29 | 37.17492 | 126.68916 | 20214 ft | 409 kts | 166° |
| 2026-05-04 14:30 | 37.14703 | 126.69757 | 21003 ft | 414 kts | 166° |
| 2026-05-04 14:30 | 37.11887 | 126.70606 | 21846 ft | 418 kts | 166° |
| 2026-05-04 14:30 | 37.06182 | 126.72324 | 23430 ft | 426 kts | 166° |
| 2026-05-04 14:31 | 37.03276 | 126.73198 | 24129 ft | 432 kts | 166° |
| 2026-05-04 14:31 | 36.97424 | 126.74957 | 25586 ft | 439 kts | 167° |
| 2026-05-04 14:32 | 36.91358 | 126.76776 | 26116 ft | 447 kts | 167° |
| 2026-05-04 14:32 | 36.88430 | 126.77653 | 26123 ft | 444 kts | 168° |
| 2026-05-04 14:32 | 36.85473 | 126.78539 | 26125 ft | 443 kts | 167° |
| 2026-05-04 14:32 | 36.82486 | 126.79433 | 26124 ft | 444 kts | 168° |
| 2026-05-04 14:33 | 36.79509 | 126.80324 | 26127 ft | 443 kts | 167° |
| 2026-05-04 14:33 | 36.76498 | 126.81223 | 26122 ft | 443 kts | 168° |
| 2026-05-04 14:33 | 36.73483 | 126.82025 | 26128 ft | 441 kts | 171° |
| 2026-05-04 14:33 | 36.70430 | 126.82504 | 26126 ft | 440 kts | 177° |
| 2026-05-04 14:34 | 36.67357 | 126.82725 | 26127 ft | 440 kts | 180° |
| 2026-05-04 14:34 | 36.64319 | 126.82855 | 26132 ft | 438 kts | 180° |
| 2026-05-04 14:34 | 36.61256 | 126.82964 | 26131 ft | 439 kts | 180° |
| 2026-05-04 14:34 | 36.58214 | 126.83070 | 26126 ft | 440 kts | 180° |
| 2026-05-04 14:35 | 36.55121 | 126.83181 | 26130 ft | 439 kts | 180° |
| 2026-05-04 14:35 | 36.52071 | 126.83291 | 26129 ft | 439 kts | 181° |
| 2026-05-04 14:35 | 36.49008 | 126.83401 | 26129 ft | 440 kts | 180° |
| 2026-05-04 14:35 | 36.45962 | 126.83512 | 26130 ft | 440 kts | 181° |
| 2026-05-04 14:36 | 36.42891 | 126.83626 | 26133 ft | 437 kts | 181° |
| 2026-05-04 14:36 | 36.41005 | 126.83695 | 26133 ft | 437 kts | 181° |
| 2026-05-04 14:36 | 36.38230 | 126.83753 | 26133 ft | 436 kts | 184° |
| 2026-05-04 14:36 | 36.35231 | 126.83565 | 26133 ft | 435 kts | 187° |
| 2026-05-04 14:37 | 36.32198 | 126.83234 | 26134 ft | 434 kts | 188° |
| 2026-05-04 14:37 | 36.29172 | 126.82870 | 26130 ft | 435 kts | 188° |
| 2026-05-04 14:37 | 36.26163 | 126.82510 | 26130 ft | 433 kts | 188° |
| 2026-05-04 14:37 | 36.23170 | 126.82160 | 26136 ft | 433 kts | 188° |
| 2026-05-04 14:38 | 36.20167 | 126.81817 | 26136 ft | 433 kts | 188° |
| 2026-05-04 14:38 | 36.17183 | 126.81481 | 26138 ft | 433 kts | 188° |
| 2026-05-04 14:38 | 36.14152 | 126.81143 | 26136 ft | 433 kts | 188° |
| 2026-05-04 14:38 | 36.11165 | 126.80814 | 26137 ft | 432 kts | 188° |
| 2026-05-04 14:39 | 36.08164 | 126.80484 | 26134 ft | 432 kts | 188° |
| 2026-05-04 14:39 | 36.05163 | 126.80156 | 26137 ft | 430 kts | 188° |
| 2026-05-04 14:39 | 36.02195 | 126.79833 | 26143 ft | 431 kts | 188° |
| 2026-05-04 14:40 | 35.96225 | 126.79182 | 26145 ft | 431 kts | 188° |
| 2026-05-04 14:40 | 35.93256 | 126.78861 | 26144 ft | 431 kts | 188° |
| 2026-05-04 14:40 | 35.90261 | 126.78536 | 26146 ft | 430 kts | 188° |
| 2026-05-04 14:40 | 35.87285 | 126.78213 | 26146 ft | 430 kts | 188° |
| 2026-05-04 14:41 | 35.84262 | 126.77885 | 26147 ft | 431 kts | 188° |
| 2026-05-04 14:41 | 35.81311 | 126.77565 | 26141 ft | 430 kts | 188° |
| 2026-05-04 14:41 | 35.75311 | 126.76915 | 26152 ft | 431 kts | 188° |
| 2026-05-04 14:42 | 35.69358 | 126.76272 | 26140 ft | 430 kts | 188° |
| 2026-05-04 14:42 | 35.66358 | 126.75948 | 26142 ft | 429 kts | 188° |
| 2026-05-04 14:42 | 35.63415 | 126.75632 | 26138 ft | 429 kts | 188° |
| 2026-05-04 14:43 | 35.62441 | 126.75526 | 26146 ft | 429 kts | 188° |
| 2026-05-04 14:46 | 35.59690 | 126.75230 | 26141 ft | 430 kts | 188° |
| 2026-05-04 14:46 | 35.56690 | 126.74907 | 26140 ft | 429 kts | 188° |
| 2026-05-04 14:47 | 35.53739 | 126.74590 | 26141 ft | 429 kts | 188° |
| 2026-05-04 14:47 | 35.50785 | 126.74273 | 26139 ft | 429 kts | 188° |
| 2026-05-04 14:47 | 35.47782 | 126.73950 | 26133 ft | 429 kts | 188° |
| 2026-05-04 14:47 | 35.44811 | 126.73631 | 26134 ft | 428 kts | 188° |
| 2026-05-04 14:48 | 35.41872 | 126.73317 | 26143 ft | 429 kts | 188° |
| 2026-05-04 14:48 | 35.38880 | 126.72997 | 26136 ft | 430 kts | 188° |
| 2026-05-04 14:48 | 35.35905 | 126.72678 | 26137 ft | 429 kts | 188° |
| 2026-05-04 14:48 | 35.32940 | 126.72362 | 26140 ft | 428 kts | 188° |
| 2026-05-04 14:49 | 35.29959 | 126.72044 | 26134 ft | 429 kts | 188° |
| 2026-05-04 14:49 | 35.26977 | 126.71726 | 26130 ft | 429 kts | 188° |
| 2026-05-04 14:49 | 35.24001 | 126.71409 | 26142 ft | 429 kts | 188° |
| 2026-05-04 14:49 | 35.21012 | 126.71091 | 26142 ft | 428 kts | 188° |
| 2026-05-04 14:50 | 35.18075 | 126.70779 | 26134 ft | 428 kts | 188° |
| 2026-05-04 14:50 | 35.15099 | 126.70462 | 26134 ft | 426 kts | 188° |
| 2026-05-04 14:50 | 35.12136 | 126.70147 | 26143 ft | 427 kts | 188° |
| 2026-05-04 14:50 | 35.09179 | 126.69832 | 26141 ft | 428 kts | 188° |
| 2026-05-04 14:51 | 35.06206 | 126.69516 | 26140 ft | 427 kts | 188° |
| 2026-05-04 14:51 | 35.03265 | 126.69205 | 26147 ft | 427 kts | 188° |
| 2026-05-04 14:51 | 35.00312 | 126.68891 | 26147 ft | 427 kts | 188° |
| 2026-05-04 14:51 | 34.97353 | 126.68578 | 26147 ft | 427 kts | 189° |
| 2026-05-04 14:52 | 34.94394 | 126.68264 | 26147 ft | 426 kts | 188° |
| 2026-05-04 14:52 | 34.91417 | 126.67949 | 25986 ft | 427 kts | 189° |
| 2026-05-04 14:52 | 34.88458 | 126.67636 | 25730 ft | 426 kts | 188° |
| 2026-05-04 14:52 | 34.85492 | 126.67323 | 25472 ft | 425 kts | 189° |
| 2026-05-04 14:53 | 34.82545 | 126.67011 | 25215 ft | 426 kts | 188° |
| 2026-05-04 14:53 | 34.79594 | 126.66698 | 24958 ft | 426 kts | 188° |
| 2026-05-04 14:53 | 34.76651 | 126.66389 | 24712 ft | 425 kts | 188° |
| 2026-05-04 14:53 | 34.73718 | 126.66080 | 24334 ft | 420 kts | 188° |
| 2026-05-04 14:54 | 34.70857 | 126.65782 | 23739 ft | 414 kts | 188° |
| 2026-05-04 14:54 | 34.67984 | 126.65482 | 23097 ft | 410 kts | 188° |
| 2026-05-04 14:54 | 34.65158 | 126.65185 | 22456 ft | 405 kts | 188° |
| 2026-05-04 14:54 | 34.62392 | 126.64894 | 21803 ft | 401 kts | 188° |
| 2026-05-04 14:55 | 34.59608 | 126.64601 | 21165 ft | 397 kts | 188° |
| 2026-05-04 14:55 | 34.56884 | 126.64315 | 20525 ft | 394 kts | 188° |
| 2026-05-04 14:55 | 34.54173 | 126.64030 | 19879 ft | 395 kts | 188° |
| 2026-05-04 14:55 | 34.51424 | 126.63740 | 19217 ft | 395 kts | 188° |
| 2026-05-04 14:56 | 34.48711 | 126.63456 | 18580 ft | 390 kts | 188° |
| 2026-05-04 14:56 | 34.46017 | 126.63174 | 17942 ft | 385 kts | 188° |
| 2026-05-04 14:56 | 34.43378 | 126.62897 | 17302 ft | 381 kts | 188° |
| 2026-05-04 14:56 | 34.40745 | 126.62622 | 16657 ft | 377 kts | 188° |
| 2026-05-04 14:57 | 34.38142 | 126.62350 | 16035 ft | 372 kts | 188° |
| 2026-05-04 14:57 | 34.35603 | 126.62085 | 15430 ft | 368 kts | 187° |
| 2026-05-04 14:57 | 34.33052 | 126.61819 | 14872 ft | 362 kts | 187° |
| 2026-05-04 14:57 | 34.30580 | 126.61562 | 14579 ft | 348 kts | 187° |
| 2026-05-04 14:58 | 34.28239 | 126.61320 | 14443 ft | 332 kts | 187° |
| 2026-05-04 14:58 | 34.25972 | 126.61085 | 14248 ft | 319 kts | 188° |
| 2026-05-04 14:58 | 34.23812 | 126.60860 | 14142 ft | 306 kts | 188° |
| 2026-05-04 14:58 | 34.21697 | 126.60637 | 14052 ft | 306 kts | 188° |
| 2026-05-04 14:59 | 34.19537 | 126.60407 | 13685 ft | 316 kts | 188° |
| 2026-05-04 14:59 | 34.17339 | 126.60176 | 13278 ft | 314 kts | 187° |
| 2026-05-04 14:59 | 34.13059 | 126.59734 | 12465 ft | 307 kts | 187° |
| 2026-05-04 15:00 | 34.10939 | 126.59514 | 12062 ft | 303 kts | 187° |
| 2026-05-04 15:00 | 34.08857 | 126.59298 | 11659 ft | 300 kts | 187° |
| 2026-05-04 15:00 | 34.06783 | 126.59102 | 11274 ft | 296 kts | 184° |
| 2026-05-04 15:01 | 34.02947 | 126.60493 | 10503 ft | 294 kts | 140° |
| 2026-05-04 15:01 | 34.01562 | 126.62315 | 10140 ft | 292 kts | 128° |
| 2026-05-04 15:01 | 34.00346 | 126.64223 | 9984 ft | 281 kts | 127° |
| 2026-05-04 15:01 | 33.99174 | 126.66074 | 9641 ft | 282 kts | 127° |
| 2026-05-04 15:02 | 33.97974 | 126.67969 | 9249 ft | 283 kts | 127° |
| 2026-05-04 15:02 | 33.96782 | 126.69849 | 8887 ft | 281 kts | 127° |
| 2026-05-04 15:02 | 33.95606 | 126.71703 | 8530 ft | 277 kts | 127° |
| 2026-05-04 15:02 | 33.94447 | 126.73531 | 8187 ft | 274 kts | 127° |
| 2026-05-04 15:03 | 33.93305 | 126.75331 | 7843 ft | 272 kts | 127° |
| 2026-05-04 15:03 | 33.92170 | 126.77119 | 7501 ft | 269 kts | 127° |
| 2026-05-04 15:03 | 33.91044 | 126.78893 | 7274 ft | 261 kts | 127° |
| 2026-05-04 15:03 | 33.89988 | 126.80586 | 7154 ft | 250 kts | 123° |
| 2026-05-04 15:04 | 33.89198 | 126.82445 | 7011 ft | 248 kts | 114° |
| 2026-05-04 15:04 | 33.88091 | 126.84148 | 6762 ft | 266 kts | 144° |
| 2026-05-04 15:04 | 33.86339 | 126.84854 | 6514 ft | 270 kts | 180° |
| 2026-05-04 15:04 | 33.84568 | 126.84289 | 6273 ft | 268 kts | 210° |
| 2026-05-04 15:05 | 33.82950 | 126.83145 | 6019 ft | 267 kts | 209° |
| 2026-05-04 15:05 | 33.81256 | 126.82233 | 5767 ft | 266 kts | 202° |
| 2026-05-04 15:05 | 33.79505 | 126.81499 | 5513 ft | 264 kts | 199° |
| 2026-05-04 15:05 | 33.77772 | 126.80833 | 5261 ft | 263 kts | 198° |
| 2026-05-04 15:06 | 33.76010 | 126.80171 | 5007 ft | 262 kts | 198° |
| 2026-05-04 15:06 | 33.74280 | 126.79528 | 4756 ft | 261 kts | 198° |
| 2026-05-04 15:06 | 33.72549 | 126.78886 | 4502 ft | 256 kts | 198° |
| 2026-05-04 15:07 | 33.69202 | 126.77649 | 4056 ft | 243 kts | 198° |
| 2026-05-04 15:07 | 33.67635 | 126.77071 | 4048 ft | 230 kts | 197° |
| 2026-05-04 15:07 | 33.66129 | 126.76506 | 4051 ft | 220 kts | 200° |
| 2026-05-04 15:07 | 33.64873 | 126.75589 | 4044 ft | 211 kts | 230° |
| 2026-05-04 15:08 | 33.64068 | 126.74136 | 4059 ft | 206 kts | 240° |
| 2026-05-04 15:08 | 33.63302 | 126.72694 | 4056 ft | 206 kts | 239° |
| 2026-05-04 15:08 | 33.62539 | 126.71245 | 4009 ft | 200 kts | 240° |
| 2026-05-04 15:08 | 33.61835 | 126.69875 | 3943 ft | 186 kts | 240° |
| 2026-05-04 15:09 | 33.61174 | 126.68591 | 3816 ft | 176 kts | 240° |
| 2026-05-04 15:09 | 33.60532 | 126.67335 | 3544 ft | 175 kts | 240° |
| 2026-05-04 15:09 | 33.59901 | 126.66109 | 3298 ft | 172 kts | 240° |
| 2026-05-04 15:10 | 33.58660 | 126.63689 | 2823 ft | 169 kts | 240° |
| 2026-05-04 15:10 | 33.58037 | 126.62477 | 2584 ft | 170 kts | 240° |
| 2026-05-04 15:10 | 33.56809 | 126.60086 | 2111 ft | 168 kts | 240° |
| 2026-05-04 15:11 | 33.56187 | 126.58878 | 1876 ft | 169 kts | 240° |
| 2026-05-04 15:11 | 33.55573 | 126.57684 | 1648 ft | 167 kts | 240° |
| 2026-05-04 15:11 | 33.54970 | 126.56510 | 1417 ft | 166 kts | 239° |
| 2026-05-04 15:11 | 33.54369 | 126.55345 | 1221 ft | 160 kts | 239° |
| 2026-05-04 15:12 | 33.53811 | 126.54261 | 988 ft | 149 kts | 239° |
| 2026-05-04 15:12 | 33.53287 | 126.53245 | 789 ft | 137 kts | 239° |
| 2026-05-04 15:12 | 33.52803 | 126.52303 | 609 ft | 131 kts | 238° |
| 2026-05-04 15:12 | 33.52325 | 126.51375 | 434 ft | 129 kts | 238° |
| 2026-05-04 15:13 | 33.51858 | 126.50468 | 259 ft | 129 kts | 238° |
| 2026-05-04 15:13 | 33.51388 | 126.49551 | 148 ft | 127 kts | 237° |
| 2026-05-04 15:13 | 33.50897 | 126.48628 | 86 ft | 130 kts | 236° |
| 2026-05-04 15:13 | 33.50362 | 126.47536 | 327 ft | 158 kts | 242° |
| 2026-05-04 15:14 | 33.49898 | 126.46580 | 463 ft | 123 kts | 231° |
| 2026-05-04 15:14 | 33.49156 | 126.45776 | 646 ft | 179 kts | 222° |
| 2026-05-04 15:14 | 33.48295 | 126.44329 | 850 ft | 244 kts | 244° |
| 2026-05-04 15:14 | 33.47614 | 126.42341 | 1553 ft | 274 kts | 249° |
| 2026-05-04 15:15 | 33.46841 | 126.40486 | 1583 ft | 231 kts | 241° |
| 2026-05-04 15:15 | 33.45980 | 126.39002 | 1577 ft | 199 kts | 234° |
| 2026-05-04 15:15 | 33.45266 | 126.37711 | 1548 ft | 177 kts | 241° |
| 2026-05-04 15:16 | 33.43884 | 126.35019 | 2303 ft | 190 kts | 239° |
| 2026-05-04 15:16 | 33.43209 | 126.33704 | 2825 ft | 185 kts | 239° |
| 2026-05-04 15:16 | 33.41877 | 126.31121 | 3841 ft | 187 kts | 239° |
| 2026-05-04 15:17 | 33.41383 | 126.29669 | 3971 ft | 187 kts | 264° |
| 2026-05-04 15:17 | 33.42646 | 126.27304 | 3954 ft | 177 kts | 332° |
| 2026-05-04 15:17 | 33.43697 | 126.26547 | 3947 ft | 177 kts | 329° |
| 2026-05-04 15:18 | 33.44752 | 126.25754 | 3949 ft | 177 kts | 329° |
| 2026-05-04 15:18 | 33.45800 | 126.24976 | 3949 ft | 177 kts | 329° |
| 2026-05-04 15:18 | 33.46871 | 126.24260 | 3943 ft | 176 kts | 341° |
| 2026-05-04 15:19 | 33.49090 | 126.25223 | 3955 ft | 178 kts | 31° |
| 2026-05-04 15:19 | 33.50153 | 126.25976 | 3948 ft | 175 kts | 30° |
| 2026-05-04 15:19 | 33.52049 | 126.27782 | 3948 ft | 177 kts | 58° |
| 2026-05-04 15:20 | 33.52689 | 126.29040 | 3953 ft | 178 kts | 56° |
| 2026-05-04 15:20 | 33.53372 | 126.30303 | 3951 ft | 177 kts | 56° |
| 2026-05-04 15:20 | 33.54026 | 126.31531 | 3955 ft | 177 kts | 56° |
| 2026-05-04 15:20 | 33.54690 | 126.32777 | 3957 ft | 177 kts | 56° |
| 2026-05-04 15:21 | 33.55355 | 126.34025 | 3949 ft | 177 kts | 56° |
| 2026-05-04 15:21 | 33.56020 | 126.35277 | 3946 ft | 176 kts | 56° |
| 2026-05-04 15:21 | 33.57340 | 126.37766 | 3949 ft | 176 kts | 56° |
| 2026-05-04 15:22 | 33.57997 | 126.39001 | 3953 ft | 177 kts | 56° |
| 2026-05-04 15:22 | 33.58659 | 126.40249 | 3951 ft | 175 kts | 56° |
| 2026-05-04 15:22 | 33.59984 | 126.42735 | 3948 ft | 176 kts | 56° |
| 2026-05-04 15:23 | 33.60650 | 126.43980 | 3950 ft | 176 kts | 56° |
| 2026-05-04 15:23 | 33.61311 | 126.45217 | 3952 ft | 177 kts | 56° |
| 2026-05-04 15:23 | 33.61982 | 126.46474 | 3950 ft | 177 kts | 56° |
| 2026-05-04 15:23 | 33.62640 | 126.47712 | 3947 ft | 176 kts | 56° |
| 2026-05-04 15:24 | 33.64060 | 126.50372 | 3950 ft | 204 kts | 56° |
| 2026-05-04 15:24 | 33.65613 | 126.53285 | 3951 ft | 207 kts | 56° |
| 2026-05-04 15:25 | 33.66394 | 126.54755 | 3949 ft | 209 kts | 56° |
| 2026-05-04 15:25 | 33.67167 | 126.56213 | 3948 ft | 208 kts | 56° |
| 2026-05-04 15:25 | 33.67960 | 126.57697 | 3945 ft | 209 kts | 56° |
| 2026-05-04 15:26 | 33.69531 | 126.60628 | 3951 ft | 209 kts | 56° |
| 2026-05-04 15:26 | 33.70202 | 126.62148 | 3937 ft | 197 kts | 73° |
| 2026-05-04 15:26 | 33.69275 | 126.64947 | 3624 ft | 185 kts | 130° |
| 2026-05-04 15:27 | 33.68307 | 126.65938 | 3366 ft | 182 kts | 149° |
| 2026-05-04 15:27 | 33.65834 | 126.66541 | 2937 ft | 180 kts | 170° |
| 2026-05-04 15:28 | 33.63334 | 126.67033 | 2881 ft | 182 kts | 170° |
| 2026-05-04 15:28 | 33.62085 | 126.67260 | 2871 ft | 181 kts | 173° |
| 2026-05-04 15:28 | 33.59882 | 126.66100 | 2866 ft | 180 kts | 231° |
| 2026-05-04 15:29 | 33.59227 | 126.64854 | 2869 ft | 173 kts | 242° |
| 2026-05-04 15:30 | 33.56967 | 126.60436 | 2565 ft | 138 kts | 240° |
| 2026-05-04 15:30 | 33.55459 | 126.57471 | 2567 ft | 139 kts | 240° |
| 2026-05-04 15:31 | 33.54411 | 126.55431 | 2117 ft | 161 kts | 240° |
| 2026-05-04 15:31 | 33.53798 | 126.54243 | 1370 ft | 177 kts | 239° |
| 2026-05-04 15:32 | 33.52032 | 126.50814 | 316 ft | 139 kts | 238° |
| 2026-05-04 15:32 | 33.51088 | 126.48997 | 85 ft | 107 kts | 239° |
| 2026-05-04 15:33 | 33.50807 | 126.48446 | 84 ft | 18 kts | 238° |
| 2026-05-04 15:34 | 33.50618 | 126.48193 | 86 ft | 12 kts | 203° |
| 2026-05-04 15:34 | 33.50559 | 126.48174 | 88 ft | 5 kts | 180° |
| 2026-05-04 15:34 | 33.50544 | 126.48299 | 91 ft | 16 kts | 56° |
| 2026-05-04 15:35 | 33.50651 | 126.48508 | 91 ft | 15 kts | 59° |
| 2026-05-04 15:35 | 33.50706 | 126.48618 | 91 ft | 15 kts | 59° |
| 2026-05-04 15:35 | 33.50766 | 126.48734 | 91 ft | 16 kts | 57° |
| 2026-05-04 15:36 | 33.50711 | 126.48912 | 92 ft | 12 kts | 133° |
| 2026-05-04 15:36 | 33.50725 | 126.49002 | 93 ft | 11 kts | 63° |
| 2026-05-04 15:36 | 33.50768 | 126.49088 | 93 ft | 12 kts | 59° |
| 2026-05-04 15:37 | 33.50779 | 126.49116 | 93 ft | 4 kts | 88° |
| 2026-05-04 15:37 | 33.50741 | 126.49166 | 94 ft | 7 kts | 152° |
| 2026-05-04 15:37 | 33.50717 | 126.49184 | 94 ft | 3 kts | 147° |
| 2026-05-04 15:37 | 33.50714 | 126.49187 | 94 ft | 0 kts | 147° |